Coeburn, Virginia
Current Conditions -  °F | °C
As of 9:35 AM on Thursday 27 Nov 2014 (Local Time) from KLNP Reporting Station
Light Snow Light Snow  
Wind Chill: 25°   Ceiling: 500
Heat Index: 32°   Visibility: 1.7mi
Dew Point: 32°   Wind: 8mph
Humidity: 100%   Direction: 330°NNW
Pressure: 30.1"   Gusts: NA
Location:  36.94°N, 82.46°W
Report Text: KLNP 271435Z AUTO 33007KT 1 3/4SM -SN OVC005 00/00 A3010 RMK AO2 P0001
Loading
Personal Weather Stations






























Interactive Weather Map New forecast layout! Learn more

10-Day Weather Forecast

Advertisements
Track Severe Weather on mobile